sensor_id;sensor_type;location;lat;lon;timestamp;P1;durP1;ratioP1;P2;durP2;ratioP2
24585;SDS011;12743;52.262;6.172;2024-03-23T00:56:18;27.90;;;6.00;;
24585;SDS011;12743;52.262;6.172;2024-03-23T00:58:44;25.80;;;6.60;;
24585;SDS011;12743;52.262;6.172;2024-03-23T01:01:10;29.25;;;6.70;;
24585;SDS011;12743;52.262;6.172;2024-03-23T01:03:36;23.67;;;5.80;;
24585;SDS011;12743;52.262;6.172;2024-03-23T01:06:02;32.73;;;6.73;;
24585;SDS011;12743;52.262;6.172;2024-03-23T01:08:29;25.33;;;6.32;;
24585;SDS011;12743;52.262;6.172;2024-03-23T01:10:59;26.75;;;6.03;;
24585;SDS011;12743;52.262;6.172;2024-03-23T01:13:25;25.30;;;6.20;;
24585;SDS011;12743;52.262;6.172;2024-03-23T01:15:52;31.23;;;6.60;;
24585;SDS011;12743;52.262;6.172;2024-03-23T01:18:19;27.02;;;6.30;;
24585;SDS011;12743;52.262;6.172;2024-03-23T01:20:45;26.95;;;6.53;;
24585;SDS011;12743;52.262;6.172;2024-03-23T01:23:11;27.80;;;6.73;;
24585;SDS011;12743;52.262;6.172;2024-03-23T01:25:37;30.67;;;6.82;;
24585;SDS011;12743;52.262;6.172;2024-03-23T01:28:03;24.50;;;5.22;;
24585;SDS011;12743;52.262;6.172;2024-03-23T01:30:29;26.98;;;5.95;;
24585;SDS011;12743;52.262;6.172;2024-03-23T01:32:56;25.67;;;5.60;;
24585;SDS011;12743;52.262;6.172;2024-03-23T01:35:22;33.00;;;7.53;;
24585;SDS011;12743;52.262;6.172;2024-03-23T01:37:48;28.67;;;6.00;;
24585;SDS011;12743;52.262;6.172;2024-03-23T01:40:15;28.03;;;5.27;;
24585;SDS011;12743;52.262;6.172;2024-03-23T01:42:41;25.13;;;6.45;;
24585;SDS011;12743;52.262;6.172;2024-03-23T01:45:08;23.52;;;6.18;;
24585;SDS011;12743;52.262;6.172;2024-03-23T01:47:35;26.03;;;5.63;;
24585;SDS011;12743;52.262;6.172;2024-03-23T01:50:01;24.95;;;6.25;;
24585;SDS011;12743;52.262;6.172;2024-03-23T01:52:27;25.02;;;5.53;;
24585;SDS011;12743;52.262;6.172;2024-03-23T01:54:53;21.27;;;5.10;;
24585;SDS011;12743;52.262;6.172;2024-03-23T01:57:19;27.03;;;6.03;;
24585;SDS011;12743;52.262;6.172;2024-03-23T01:59:46;27.45;;;5.45;;
24585;SDS011;12743;52.262;6.172;2024-03-23T02:02:18;26.67;;;5.85;;
24585;SDS011;12743;52.262;6.172;2024-03-23T02:04:45;23.42;;;5.95;;
24585;SDS011;12743;52.262;6.172;2024-03-23T02:07:11;26.10;;;6.17;;
24585;SDS011;12743;52.262;6.172;2024-03-23T02:09:36;23.98;;;6.30;;
24585;SDS011;12743;52.262;6.172;2024-03-23T02:12:02;30.23;;;5.13;;
24585;SDS011;12743;52.262;6.172;2024-03-23T02:14:28;23.52;;;5.22;;
24585;SDS011;12743;52.262;6.172;2024-03-23T02:16:54;23.67;;;5.47;;
24585;SDS011;12743;52.262;6.172;2024-03-23T02:19:20;25.63;;;5.77;;
24585;SDS011;12743;52.262;6.172;2024-03-23T02:21:45;22.23;;;6.03;;
24585;SDS011;12743;52.262;6.172;2024-03-23T02:24:12;24.33;;;5.90;;
24585;SDS011;12743;52.262;6.172;2024-03-23T02:26:38;30.80;;;5.85;;
24585;SDS011;12743;52.262;6.172;2024-03-23T02:29:04;19.23;;;5.57;;
24585;SDS011;12743;52.262;6.172;2024-03-23T02:31:30;27.15;;;6.07;;
24585;SDS011;12743;52.262;6.172;2024-03-23T02:33:56;27.70;;;6.57;;
24585;SDS011;12743;52.262;6.172;2024-03-23T02:36:21;19.88;;;6.30;;
24585;SDS011;12743;52.262;6.172;2024-03-23T02:38:47;28.93;;;5.50;;
24585;SDS011;12743;52.262;6.172;2024-03-23T02:41:13;30.63;;;5.82;;
24585;SDS011;12743;52.262;6.172;2024-03-23T02:43:39;26.67;;;5.82;;
24585;SDS011;12743;52.262;6.172;2024-03-23T02:46:04;26.17;;;6.53;;
24585;SDS011;12743;52.262;6.172;2024-03-23T02:48:30;30.75;;;6.85;;
24585;SDS011;12743;52.262;6.172;2024-03-23T02:50:56;30.87;;;7.27;;
24585;SDS011;12743;52.262;6.172;2024-03-23T02:53:22;22.98;;;6.20;;
24585;SDS011;12743;52.262;6.172;2024-03-23T02:55:47;21.53;;;6.67;;
24585;SDS011;12743;52.262;6.172;2024-03-23T02:58:13;29.90;;;7.20;;
24585;SDS011;12743;52.262;6.172;2024-03-23T03:00:39;28.53;;;7.40;;
24585;SDS011;12743;52.262;6.172;2024-03-23T03:03:06;26.58;;;7.70;;
24585;SDS011;12743;52.262;6.172;2024-03-23T03:05:32;22.58;;;7.20;;
24585;SDS011;12743;52.262;6.172;2024-03-23T03:07:58;27.42;;;7.70;;
24585;SDS011;12743;52.262;6.172;2024-03-23T03:10:24;33.60;;;8.50;;
24585;SDS011;12743;52.262;6.172;2024-03-23T03:12:50;30.95;;;8.18;;
24585;SDS011;12743;52.262;6.172;2024-03-23T03:15:15;31.37;;;8.43;;
24585;SDS011;12743;52.262;6.172;2024-03-23T03:17:41;27.17;;;7.85;;
24585;SDS011;12743;52.262;6.172;2024-03-23T03:20:08;26.90;;;8.60;;
24585;SDS011;12743;52.262;6.172;2024-03-23T03:22:38;33.35;;;8.77;;
24585;SDS011;12743;52.262;6.172;2024-03-23T03:25:04;26.30;;;7.45;;
24585;SDS011;12743;52.262;6.172;2024-03-23T03:27:32;37.10;;;10.43;;
24585;SDS011;12743;52.262;6.172;2024-03-23T03:29:59;32.78;;;8.30;;
24585;SDS011;12743;52.262;6.172;2024-03-23T03:32:30;31.97;;;9.40;;
24585;SDS011;12743;52.262;6.172;2024-03-23T03:34:56;22.17;;;8.30;;
24585;SDS011;12743;52.262;6.172;2024-03-23T03:37:21;36.55;;;11.40;;
24585;SDS011;12743;52.262;6.172;2024-03-23T03:39:47;28.60;;;9.53;;
24585;SDS011;12743;52.262;6.172;2024-03-23T03:42:13;32.13;;;10.02;;
24585;SDS011;12743;52.262;6.172;2024-03-23T03:44:38;34.10;;;10.57;;
24585;SDS011;12743;52.262;6.172;2024-03-23T03:47:05;28.50;;;9.52;;
24585;SDS011;12743;52.262;6.172;2024-03-23T03:49:32;34.25;;;10.30;;
24585;SDS011;12743;52.262;6.172;2024-03-23T03:51:57;35.00;;;11.43;;
24585;SDS011;12743;52.262;6.172;2024-03-23T03:54:23;30.90;;;9.85;;
24585;SDS011;12743;52.262;6.172;2024-03-23T03:56:49;35.13;;;10.83;;
24585;SDS011;12743;52.262;6.172;2024-03-23T03:59:15;41.05;;;11.18;;
24585;SDS011;12743;52.262;6.172;2024-03-23T04:01:40;31.10;;;9.55;;
24585;SDS011;12743;52.262;6.172;2024-03-23T04:04:06;39.97;;;11.20;;
24585;SDS011;12743;52.262;6.172;2024-03-23T04:06:32;32.58;;;11.73;;
24585;SDS011;12743;52.262;6.172;2024-03-23T04:08:58;43.70;;;12.35;;
24585;SDS011;12743;52.262;6.172;2024-03-23T04:11:24;36.10;;;11.60;;
24585;SDS011;12743;52.262;6.172;2024-03-23T04:13:50;34.53;;;11.90;;
24585;SDS011;12743;52.262;6.172;2024-03-23T04:16:34;33.50;;;11.95;;
24585;SDS011;12743;52.262;6.172;2024-03-23T04:19:01;44.20;;;12.00;;
24585;SDS011;12743;52.262;6.172;2024-03-23T04:21:26;29.92;;;9.73;;
24585;SDS011;12743;52.262;6.172;2024-03-23T04:23:52;34.80;;;11.70;;
24585;SDS011;12743;52.262;6.172;2024-03-23T04:26:18;33.73;;;11.27;;
24585;SDS011;12743;52.262;6.172;2024-03-23T04:28:44;27.15;;;10.13;;
24585;SDS011;12743;52.262;6.172;2024-03-23T04:31:09;31.97;;;11.07;;
24585;SDS011;12743;52.262;6.172;2024-03-23T04:33:35;33.47;;;11.63;;
24585;SDS011;12743;52.262;6.172;2024-03-23T04:36:01;39.27;;;12.33;;
24585;SDS011;12743;52.262;6.172;2024-03-23T04:38:28;40.08;;;12.73;;
24585;SDS011;12743;52.262;6.172;2024-03-23T04:40:54;31.35;;;10.75;;
24585;SDS011;12743;52.262;6.172;2024-03-23T04:43:21;25.53;;;10.60;;
24585;SDS011;12743;52.262;6.172;2024-03-23T04:45:47;32.13;;;11.65;;
24585;SDS011;12743;52.262;6.172;2024-03-23T04:48:13;30.02;;;10.73;;
24585;SDS011;12743;52.262;6.172;2024-03-23T04:50:38;32.97;;;11.27;;
24585;SDS011;12743;52.262;6.172;2024-03-23T04:53:04;29.80;;;10.23;;
24585;SDS011;12743;52.262;6.172;2024-03-23T04:55:30;26.77;;;10.27;;
24585;SDS011;12743;52.262;6.172;2024-03-23T04:57:56;31.25;;;10.52;;
24585;SDS011;12743;52.262;6.172;2024-03-23T05:00:22;26.87;;;10.50;;
24585;SDS011;12743;52.262;6.172;2024-03-23T05:02:48;25.65;;;10.73;;
24585;SDS011;12743;52.262;6.172;2024-03-23T05:05:14;29.23;;;10.32;;
24585;SDS011;12743;52.262;6.172;2024-03-23T05:07:40;30.38;;;9.95;;
24585;SDS011;12743;52.262;6.172;2024-03-23T05:10:08;30.63;;;10.35;;
24585;SDS011;12743;52.262;6.172;2024-03-23T05:12:36;31.27;;;9.35;;
24585;SDS011;12743;52.262;6.172;2024-03-23T05:15:04;28.80;;;9.18;;
24585;SDS011;12743;52.262;6.172;2024-03-23T05:17:31;37.92;;;10.55;;
24585;SDS011;12743;52.262;6.172;2024-03-23T05:19:59;22.65;;;8.80;;
24585;SDS011;12743;52.262;6.172;2024-03-23T05:22:26;26.30;;;8.63;;
24585;SDS011;12743;52.262;6.172;2024-03-23T05:24:52;30.52;;;8.75;;
24585;SDS011;12743;52.262;6.172;2024-03-23T05:27:18;25.58;;;8.88;;
24585;SDS011;12743;52.262;6.172;2024-03-23T05:29:44;23.05;;;8.32;;
24585;SDS011;12743;52.262;6.172;2024-03-23T05:32:10;25.30;;;7.83;;
24585;SDS011;12743;52.262;6.172;2024-03-23T05:34:36;28.48;;;8.80;;
24585;SDS011;12743;52.262;6.172;2024-03-23T05:37:01;24.00;;;7.73;;
24585;SDS011;12743;52.262;6.172;2024-03-23T05:39:27;21.95;;;8.10;;
24585;SDS011;12743;52.262;6.172;2024-03-23T05:41:53;33.17;;;7.97;;
24585;SDS011;12743;52.262;6.172;2024-03-23T05:44:19;25.45;;;8.13;;
24585;SDS011;12743;52.262;6.172;2024-03-23T05:46:45;22.93;;;5.83;;
24585;SDS011;12743;52.262;6.172;2024-03-23T05:49:14;21.17;;;6.03;;
24585;SDS011;12743;52.262;6.172;2024-03-23T05:51:40;25.92;;;6.47;;
24585;SDS011;12743;52.262;6.172;2024-03-23T05:54:06;22.60;;;6.18;;
24585;SDS011;12743;52.262;6.172;2024-03-23T05:56:32;20.57;;;6.60;;
24585;SDS011;12743;52.262;6.172;2024-03-23T05:58:57;19.00;;;6.22;;
24585;SDS011;12743;52.262;6.172;2024-03-23T06:01:23;18.80;;;5.50;;
24585;SDS011;12743;52.262;6.172;2024-03-23T06:03:49;27.85;;;6.30;;
24585;SDS011;12743;52.262;6.172;2024-03-23T06:06:15;24.38;;;6.57;;
24585;SDS011;12743;52.262;6.172;2024-03-23T06:08:41;19.27;;;5.60;;
24585;SDS011;12743;52.262;6.172;2024-03-23T06:11:07;27.23;;;6.53;;
24585;SDS011;12743;52.262;6.172;2024-03-23T06:13:33;18.95;;;5.35;;
24585;SDS011;12743;52.262;6.172;2024-03-23T06:16:00;22.88;;;5.57;;
24585;SDS011;12743;52.262;6.172;2024-03-23T06:18:26;18.57;;;5.27;;
24585;SDS011;12743;52.262;6.172;2024-03-23T06:20:53;22.70;;;6.57;;
24585;SDS011;12743;52.262;6.172;2024-03-23T06:23:19;16.02;;;4.82;;
24585;SDS011;12743;52.262;6.172;2024-03-23T06:25:46;19.42;;;4.70;;
24585;SDS011;12743;52.262;6.172;2024-03-23T06:28:12;18.85;;;4.35;;
24585;SDS011;12743;52.262;6.172;2024-03-23T06:30:37;19.17;;;5.23;;
24585;SDS011;12743;52.262;6.172;2024-03-23T06:33:03;21.33;;;5.47;;
24585;SDS011;12743;52.262;6.172;2024-03-23T06:35:31;17.13;;;5.10;;
24585;SDS011;12743;52.262;6.172;2024-03-23T06:37:57;20.60;;;4.93;;
24585;SDS011;12743;52.262;6.172;2024-03-23T06:40:23;15.60;;;4.13;;
24585;SDS011;12743;52.262;6.172;2024-03-23T06:42:49;17.20;;;4.53;;
24585;SDS011;12743;52.262;6.172;2024-03-23T06:45:16;15.30;;;3.85;;
24585;SDS011;12743;52.262;6.172;2024-03-23T06:47:42;18.13;;;4.00;;
24585;SDS011;12743;52.262;6.172;2024-03-23T06:50:08;16.67;;;4.10;;
24585;SDS011;12743;52.262;6.172;2024-03-23T06:52:35;20.63;;;4.30;;
24585;SDS011;12743;52.262;6.172;2024-03-23T06:55:01;15.43;;;3.47;;
24585;SDS011;12743;52.262;6.172;2024-03-23T06:57:29;13.63;;;2.83;;
24585;SDS011;12743;52.262;6.172;2024-03-23T06:59:55;12.52;;;2.70;;
24585;SDS011;12743;52.262;6.172;2024-03-23T07:02:21;12.67;;;2.37;;
24585;SDS011;12743;52.262;6.172;2024-03-23T07:04:47;13.00;;;2.70;;
24585;SDS011;12743;52.262;6.172;2024-03-23T07:07:12;11.70;;;2.63;;
24585;SDS011;12743;52.262;6.172;2024-03-23T07:09:38;13.82;;;2.70;;
24585;SDS011;12743;52.262;6.172;2024-03-23T07:12:04;11.02;;;2.28;;
24585;SDS011;12743;52.262;6.172;2024-03-23T07:14:30;13.10;;;2.60;;
24585;SDS011;12743;52.262;6.172;2024-03-23T07:16:56;10.70;;;2.23;;
24585;SDS011;12743;52.262;6.172;2024-03-23T07:19:22;8.38;;;2.67;;
24585;SDS011;12743;52.262;6.172;2024-03-23T07:21:49;11.35;;;2.05;;
24585;SDS011;12743;52.262;6.172;2024-03-23T07:24:15;16.60;;;2.57;;
24585;SDS011;12743;52.262;6.172;2024-03-23T07:26:41;16.38;;;2.50;;
24585;SDS011;12743;52.262;6.172;2024-03-23T07:29:07;10.90;;;2.47;;
24585;SDS011;12743;52.262;6.172;2024-03-23T07:31:33;11.50;;;2.37;;
24585;SDS011;12743;52.262;6.172;2024-03-23T07:33:59;13.93;;;2.67;;
24585;SDS011;12743;52.262;6.172;2024-03-23T07:36:24;11.17;;;2.13;;
24585;SDS011;12743;52.262;6.172;2024-03-23T07:38:51;13.75;;;2.50;;
24585;SDS011;12743;52.262;6.172;2024-03-23T07:41:20;11.57;;;2.45;;
24585;SDS011;12743;52.262;6.172;2024-03-23T07:43:47;15.95;;;2.50;;
24585;SDS011;12743;52.262;6.172;2024-03-23T07:46:14;22.38;;;4.38;;
24585;SDS011;12743;52.262;6.172;2024-03-23T07:48:41;12.70;;;2.20;;
24585;SDS011;12743;52.262;6.172;2024-03-23T07:51:08;9.57;;;1.80;;
24585;SDS011;12743;52.262;6.172;2024-03-23T07:53:35;15.77;;;2.30;;
24585;SDS011;12743;52.262;6.172;2024-03-23T07:56:03;11.15;;;2.20;;
24585;SDS011;12743;52.262;6.172;2024-03-23T07:58:29;14.60;;;2.17;;
24585;SDS011;12743;52.262;6.172;2024-03-23T08:00:56;14.27;;;2.73;;
24585;SDS011;12743;52.262;6.172;2024-03-23T08:03:22;13.18;;;2.03;;
24585;SDS011;12743;52.262;6.172;2024-03-23T08:05:48;14.77;;;2.33;;
24585;SDS011;12743;52.262;6.172;2024-03-23T08:08:14;11.83;;;2.40;;
24585;SDS011;12743;52.262;6.172;2024-03-23T08:10:47;13.82;;;2.30;;
24585;SDS011;12743;52.262;6.172;2024-03-23T08:13:16;15.20;;;2.85;;
24585;SDS011;12743;52.262;6.172;2024-03-23T08:15:42;14.35;;;2.20;;
24585;SDS011;12743;52.262;6.172;2024-03-23T08:18:08;10.37;;;1.83;;
24585;SDS011;12743;52.262;6.172;2024-03-23T08:20:35;15.43;;;2.20;;
24585;SDS011;12743;52.262;6.172;2024-03-23T08:23:01;12.55;;;2.88;;
24585;SDS011;12743;52.262;6.172;2024-03-23T08:25:26;12.00;;;1.90;;
24585;SDS011;12743;52.262;6.172;2024-03-23T08:27:52;12.90;;;2.13;;
24585;SDS011;12743;52.262;6.172;2024-03-23T08:30:18;11.53;;;1.80;;
24585;SDS011;12743;52.262;6.172;2024-03-23T08:32:44;9.55;;;2.13;;
24585;SDS011;12743;52.262;6.172;2024-03-23T08:35:09;14.27;;;2.30;;
24585;SDS011;12743;52.262;6.172;2024-03-23T08:37:35;10.40;;;2.05;;
24585;SDS011;12743;52.262;6.172;2024-03-23T08:40:01;10.47;;;1.57;;
24585;SDS011;12743;52.262;6.172;2024-03-23T08:42:27;9.38;;;1.77;;
24585;SDS011;12743;52.262;6.172;2024-03-23T08:44:53;14.70;;;2.00;;
24585;SDS011;12743;52.262;6.172;2024-03-23T08:47:19;7.85;;;1.90;;
24585;SDS011;12743;52.262;6.172;2024-03-23T08:49:45;10.93;;;1.80;;
24585;SDS011;12743;52.262;6.172;2024-03-23T08:52:11;10.68;;;1.80;;
24585;SDS011;12743;52.262;6.172;2024-03-23T08:54:36;7.73;;;1.63;;
24585;SDS011;12743;52.262;6.172;2024-03-23T08:57:02;11.45;;;1.65;;
24585;SDS011;12743;52.262;6.172;2024-03-23T08:59:28;12.20;;;1.50;;
24585;SDS011;12743;52.262;6.172;2024-03-23T09:01:54;10.23;;;1.77;;
24585;SDS011;12743;52.262;6.172;2024-03-23T09:04:19;11.55;;;1.92;;
24585;SDS011;12743;52.262;6.172;2024-03-23T09:06:46;10.57;;;1.40;;
24585;SDS011;12743;52.262;6.172;2024-03-23T09:09:12;10.05;;;1.40;;
24585;SDS011;12743;52.262;6.172;2024-03-23T09:11:38;10.27;;;1.57;;
24585;SDS011;12743;52.262;6.172;2024-03-23T09:14:04;9.52;;;1.40;;
24585;SDS011;12743;52.262;6.172;2024-03-23T09:16:29;9.07;;;1.10;;
24585;SDS011;12743;52.262;6.172;2024-03-23T09:18:55;7.20;;;1.00;;
24585;SDS011;12743;52.262;6.172;2024-03-23T09:21:21;13.87;;;1.20;;
24585;SDS011;12743;52.262;6.172;2024-03-23T09:23:46;4.55;;;0.80;;
24585;SDS011;12743;52.262;6.172;2024-03-23T09:26:12;6.90;;;0.90;;
24585;SDS011;12743;52.262;6.172;2024-03-23T09:28:38;6.95;;;0.68;;
24585;SDS011;12743;52.262;6.172;2024-03-23T09:33:30;9.07;;;1.10;;
24585;SDS011;12743;52.262;6.172;2024-03-23T09:35:56;10.65;;;1.10;;
24585;SDS011;12743;52.262;6.172;2024-03-23T09:38:22;11.73;;;1.73;;
24585;SDS011;12743;52.262;6.172;2024-03-23T09:40:49;8.18;;;1.30;;
24585;SDS011;12743;52.262;6.172;2024-03-23T09:43:15;10.93;;;1.38;;
24585;SDS011;12743;52.262;6.172;2024-03-23T09:45:41;12.05;;;1.13;;
24585;SDS011;12743;52.262;6.172;2024-03-23T09:48:11;5.77;;;0.67;;
24585;SDS011;12743;52.262;6.172;2024-03-23T09:50:40;9.77;;;1.13;;
24585;SDS011;12743;52.262;6.172;2024-03-23T09:53:06;13.23;;;0.88;;
24585;SDS011;12743;52.262;6.172;2024-03-23T09:55:33;7.57;;;0.93;;
24585;SDS011;12743;52.262;6.172;2024-03-23T09:58:02;9.27;;;0.90;;
24585;SDS011;12743;52.262;6.172;2024-03-23T10:00:28;6.57;;;0.70;;
24585;SDS011;12743;52.262;6.172;2024-03-23T10:02:57;9.50;;;0.73;;
24585;SDS011;12743;52.262;6.172;2024-03-23T10:05:27;7.13;;;0.75;;
24585;SDS011;12743;52.262;6.172;2024-03-23T10:07:54;8.18;;;0.57;;
24585;SDS011;12743;52.262;6.172;2024-03-23T10:10:19;5.77;;;0.50;;
24585;SDS011;12743;52.262;6.172;2024-03-23T10:12:47;6.13;;;0.88;;
24585;SDS011;12743;52.262;6.172;2024-03-23T10:15:19;7.38;;;0.50;;
24585;SDS011;12743;52.262;6.172;2024-03-23T10:17:49;6.07;;;0.70;;
24585;SDS011;12743;52.262;6.172;2024-03-23T10:20:21;9.88;;;1.40;;
24585;SDS011;12743;52.262;6.172;2024-03-23T10:22:48;6.25;;;1.05;;
24585;SDS011;12743;52.262;6.172;2024-03-23T10:25:15;8.55;;;0.80;;
24585;SDS011;12743;52.262;6.172;2024-03-23T10:27:41;7.73;;;0.60;;
24585;SDS011;12743;52.262;6.172;2024-03-23T10:30:12;8.00;;;0.63;;
24585;SDS011;12743;52.262;6.172;2024-03-23T10:32:42;5.22;;;0.50;;
24585;SDS011;12743;52.262;6.172;2024-03-23T10:35:15;6.63;;;0.55;;
24585;SDS011;12743;52.262;6.172;2024-03-23T10:37:49;4.03;;;0.40;;
24585;SDS011;12743;52.262;6.172;2024-03-23T10:40:17;6.37;;;0.67;;
24585;SDS011;12743;52.262;6.172;2024-03-23T10:42:46;6.53;;;0.40;;
24585;SDS011;12743;52.262;6.172;2024-03-23T10:45:12;7.57;;;1.00;;
24585;SDS011;12743;52.262;6.172;2024-03-23T10:47:38;3.80;;;0.40;;
24585;SDS011;12743;52.262;6.172;2024-03-23T10:50:04;5.73;;;0.40;;
24585;SDS011;12743;52.262;6.172;2024-03-23T10:52:33;1.77;;;0.35;;
24585;SDS011;12743;52.262;6.172;2024-03-23T10:54:59;6.97;;;0.90;;
24585;SDS011;12743;52.262;6.172;2024-03-23T10:57:30;3.63;;;0.30;;
24585;SDS011;12743;52.262;6.172;2024-03-23T11:00:01;6.82;;;0.60;;
24585;SDS011;12743;52.262;6.172;2024-03-23T11:02:28;5.77;;;0.60;;
24585;SDS011;12743;52.262;6.172;2024-03-23T11:04:55;7.43;;;0.45;;
24585;SDS011;12743;52.262;6.172;2024-03-23T11:09:49;7.00;;;0.65;;
24585;SDS011;12743;52.262;6.172;2024-03-23T11:14:49;6.32;;;0.50;;
24585;SDS011;12743;52.262;6.172;2024-03-23T11:17:22;6.15;;;0.80;;
24585;SDS011;12743;52.262;6.172;2024-03-23T11:20:07;8.45;;;0.70;;
24585;SDS011;12743;52.262;6.172;2024-03-23T11:22:46;7.20;;;0.90;;
24585;SDS011;12743;52.262;6.172;2024-03-23T11:25:16;9.03;;;0.80;;
24585;SDS011;12743;52.262;6.172;2024-03-23T11:27:43;7.95;;;0.80;;
24585;SDS011;12743;52.262;6.172;2024-03-23T11:30:13;7.10;;;0.70;;
24585;SDS011;12743;52.262;6.172;2024-03-23T11:32:40;5.47;;;0.60;;
24585;SDS011;12743;52.262;6.172;2024-03-23T11:35:07;4.70;;;0.45;;
24585;SDS011;12743;52.262;6.172;2024-03-23T11:37:36;7.27;;;0.83;;
24585;SDS011;12743;52.262;6.172;2024-03-23T11:40:18;13.38;;;1.05;;
24585;SDS011;12743;52.262;6.172;2024-03-23T11:42:44;7.85;;;0.47;;
24585;SDS011;12743;52.262;6.172;2024-03-23T11:45:10;6.80;;;0.40;;
24585;SDS011;12743;52.262;6.172;2024-03-23T11:47:37;7.18;;;0.40;;
24585;SDS011;12743;52.262;6.172;2024-03-23T11:50:03;7.55;;;0.73;;
24585;SDS011;12743;52.262;6.172;2024-03-23T11:52:29;9.43;;;0.77;;
24585;SDS011;12743;52.262;6.172;2024-03-23T11:55:13;6.75;;;0.80;;
24585;SDS011;12743;52.262;6.172;2024-03-23T11:57:39;5.00;;;0.33;;
24585;SDS011;12743;52.262;6.172;2024-03-23T12:00:19;7.22;;;0.45;;
24585;SDS011;12743;52.262;6.172;2024-03-23T12:02:46;6.85;;;0.30;;
24585;SDS011;12743;52.262;6.172;2024-03-23T12:05:15;6.70;;;0.33;;
24585;SDS011;12743;52.262;6.172;2024-03-23T12:07:41;8.88;;;0.65;;
24585;SDS011;12743;52.262;6.172;2024-03-23T12:10:07;11.02;;;1.23;;
24585;SDS011;12743;52.262;6.172;2024-03-23T12:12:33;10.73;;;0.67;;
24585;SDS011;12743;52.262;6.172;2024-03-23T12:15:06;4.05;;;0.45;;
24585;SDS011;12743;52.262;6.172;2024-03-23T12:17:33;4.32;;;0.50;;
24585;SDS011;12743;52.262;6.172;2024-03-23T12:20:00;8.20;;;1.05;;
24585;SDS011;12743;52.262;6.172;2024-03-23T12:22:27;9.07;;;0.90;;
24585;SDS011;12743;52.262;6.172;2024-03-23T12:24:54;7.30;;;0.70;;
24585;SDS011;12743;52.262;6.172;2024-03-23T12:27:20;9.70;;;0.68;;
24585;SDS011;12743;52.262;6.172;2024-03-23T12:29:46;8.48;;;0.75;;
24585;SDS011;12743;52.262;6.172;2024-03-23T12:32:13;5.80;;;0.52;;
24585;SDS011;12743;52.262;6.172;2024-03-23T12:34:39;8.10;;;0.52;;
24585;SDS011;12743;52.262;6.172;2024-03-23T12:37:05;7.83;;;0.50;;
24585;SDS011;12743;52.262;6.172;2024-03-23T12:39:38;9.35;;;0.73;;
24585;SDS011;12743;52.262;6.172;2024-03-23T12:42:04;4.45;;;0.60;;
24585;SDS011;12743;52.262;6.172;2024-03-23T12:44:30;6.88;;;0.70;;
24585;SDS011;12743;52.262;6.172;2024-03-23T12:46:55;6.57;;;0.40;;
24585;SDS011;12743;52.262;6.172;2024-03-23T12:49:21;5.13;;;0.73;;
24585;SDS011;12743;52.262;6.172;2024-03-23T12:51:54;7.67;;;0.50;;
24585;SDS011;12743;52.262;6.172;2024-03-23T12:54:23;4.35;;;0.30;;
24585;SDS011;12743;52.262;6.172;2024-03-23T12:56:50;7.35;;;0.82;;
24585;SDS011;12743;52.262;6.172;2024-03-23T12:59:16;6.32;;;1.02;;
24585;SDS011;12743;52.262;6.172;2024-03-23T13:01:44;7.30;;;0.50;;
24585;SDS011;12743;52.262;6.172;2024-03-23T13:04:10;6.82;;;0.60;;
24585;SDS011;12743;52.262;6.172;2024-03-23T13:06:36;7.00;;;0.50;;
24585;SDS011;12743;52.262;6.172;2024-03-23T13:09:02;6.03;;;0.43;;
24585;SDS011;12743;52.262;6.172;2024-03-23T13:11:29;6.40;;;0.57;;
24585;SDS011;12743;52.262;6.172;2024-03-23T13:13:55;5.77;;;0.50;;
24585;SDS011;12743;52.262;6.172;2024-03-23T13:16:21;4.72;;;0.40;;
24585;SDS011;12743;52.262;6.172;2024-03-23T13:18:46;6.15;;;0.30;;
24585;SDS011;12743;52.262;6.172;2024-03-23T13:21:12;6.07;;;0.90;;
24585;SDS011;12743;52.262;6.172;2024-03-23T13:23:38;5.80;;;0.43;;
24585;SDS011;12743;52.262;6.172;2024-03-23T13:26:07;7.55;;;0.77;;
24585;SDS011;12743;52.262;6.172;2024-03-23T13:28:33;5.70;;;0.30;;
24585;SDS011;12743;52.262;6.172;2024-03-23T13:31:00;6.20;;;0.35;;
24585;SDS011;12743;52.262;6.172;2024-03-23T13:33:32;3.97;;;0.35;;
24585;SDS011;12743;52.262;6.172;2024-03-23T13:35:57;6.10;;;0.47;;
24585;SDS011;12743;52.262;6.172;2024-03-23T13:38:24;6.50;;;0.60;;
24585;SDS011;12743;52.262;6.172;2024-03-23T13:43:19;4.45;;;0.45;;
24585;SDS011;12743;52.262;6.172;2024-03-23T13:45:49;5.88;;;0.38;;
24585;SDS011;12743;52.262;6.172;2024-03-23T13:48:19;6.93;;;0.45;;
24585;SDS011;12743;52.262;6.172;2024-03-23T13:50:45;6.33;;;0.40;;
24585;SDS011;12743;52.262;6.172;2024-03-23T13:53:14;3.92;;;0.38;;
24585;SDS011;12743;52.262;6.172;2024-03-23T13:55:46;4.10;;;0.30;;
24585;SDS011;12743;52.262;6.172;2024-03-23T13:58:15;5.18;;;0.40;;
24585;SDS011;12743;52.262;6.172;2024-03-23T14:00:41;6.07;;;0.60;;
24585;SDS011;12743;52.262;6.172;2024-03-23T14:03:10;4.72;;;0.52;;
24585;SDS011;12743;52.262;6.172;2024-03-23T14:05:36;6.50;;;0.80;;
24585;SDS011;12743;52.262;6.172;2024-03-23T14:08:07;6.70;;;0.45;;
24585;SDS011;12743;52.262;6.172;2024-03-23T14:10:33;7.05;;;0.30;;
24585;SDS011;12743;52.262;6.172;2024-03-23T14:13:01;6.03;;;0.50;;
24585;SDS011;12743;52.262;6.172;2024-03-23T14:15:28;7.10;;;0.63;;
24585;SDS011;12743;52.262;6.172;2024-03-23T14:17:55;9.05;;;0.50;;
24585;SDS011;12743;52.262;6.172;2024-03-23T14:20:22;8.73;;;0.55;;
24585;SDS011;12743;52.262;6.172;2024-03-23T14:22:49;6.20;;;0.88;;
24585;SDS011;12743;52.262;6.172;2024-03-23T14:25:15;8.97;;;1.07;;
24585;SDS011;12743;52.262;6.172;2024-03-23T14:27:42;7.15;;;0.52;;
24585;SDS011;12743;52.262;6.172;2024-03-23T14:30:10;8.00;;;0.80;;
24585;SDS011;12743;52.262;6.172;2024-03-23T14:32:37;5.85;;;0.50;;
24585;SDS011;12743;52.262;6.172;2024-03-23T14:35:03;9.18;;;0.60;;
24585;SDS011;12743;52.262;6.172;2024-03-23T14:37:30;7.23;;;0.60;;
24585;SDS011;12743;52.262;6.172;2024-03-23T14:39:56;6.43;;;1.05;;
24585;SDS011;12743;52.262;6.172;2024-03-23T14:42:22;9.00;;;0.82;;
24585;SDS011;12743;52.262;6.172;2024-03-23T14:44:49;7.22;;;0.45;;
24585;SDS011;12743;52.262;6.172;2024-03-23T14:47:18;8.52;;;0.77;;
24585;SDS011;12743;52.262;6.172;2024-03-23T14:49:45;5.37;;;0.80;;
24585;SDS011;12743;52.262;6.172;2024-03-23T14:52:16;7.32;;;0.70;;
24585;SDS011;12743;52.262;6.172;2024-03-23T14:54:42;5.85;;;0.30;;
24585;SDS011;12743;52.262;6.172;2024-03-23T14:57:09;6.35;;;0.47;;
24585;SDS011;12743;52.262;6.172;2024-03-23T14:59:35;5.68;;;0.35;;
24585;SDS011;12743;52.262;6.172;2024-03-23T15:02:06;5.17;;;0.40;;
24585;SDS011;12743;52.262;6.172;2024-03-23T15:04:33;5.07;;;0.55;;
24585;SDS011;12743;52.262;6.172;2024-03-23T15:06:59;7.15;;;0.52;;
24585;SDS011;12743;52.262;6.172;2024-03-23T15:09:26;5.47;;;0.90;;
24585;SDS011;12743;52.262;6.172;2024-03-23T15:11:51;5.67;;;0.50;;
24585;SDS011;12743;52.262;6.172;2024-03-23T15:14:20;9.87;;;0.57;;
24585;SDS011;12743;52.262;6.172;2024-03-23T15:16:46;6.30;;;0.40;;
24585;SDS011;12743;52.262;6.172;2024-03-23T15:19:14;7.55;;;0.68;;
24585;SDS011;12743;52.262;6.172;2024-03-23T15:21:40;4.03;;;0.20;;
24585;SDS011;12743;52.262;6.172;2024-03-23T15:24:07;6.05;;;0.45;;
24585;SDS011;12743;52.262;6.172;2024-03-23T15:26:36;6.63;;;0.50;;
24585;SDS011;12743;52.262;6.172;2024-03-23T15:29:03;6.75;;;0.50;;
24585;SDS011;12743;52.262;6.172;2024-03-23T15:31:35;6.22;;;0.70;;
24585;SDS011;12743;52.262;6.172;2024-03-23T15:34:01;4.53;;;0.40;;
24585;SDS011;12743;52.262;6.172;2024-03-23T15:36:26;6.97;;;0.47;;
24585;SDS011;12743;52.262;6.172;2024-03-23T15:38:52;5.60;;;0.98;;
24585;SDS011;12743;52.262;6.172;2024-03-23T15:41:20;7.25;;;0.90;;